sensor_id;sensor_type;location;lat;lon;timestamp;pressure;altitude;pressure_sealevel;temperature;humidity
56038;BME280;41907;47.848;9.000;2023-07-31T00:01:14;95934.91;;;13.75;100.00
56038;BME280;41907;47.848;9.000;2023-07-31T00:03:39;95935.53;;;13.72;100.00
56038;BME280;41907;47.848;9.000;2023-07-31T00:06:05;95922.66;;;13.66;100.00
56038;BME280;41907;47.848;9.000;2023-07-31T00:08:30;95921.75;;;13.53;100.00
56038;BME280;41907;47.848;9.000;2023-07-31T00:10:55;95917.34;;;13.40;100.00
56038;BME280;41907;47.848;9.000;2023-07-31T00:13:21;95914.84;;;13.44;100.00
56038;BME280;41907;47.848;9.000;2023-07-31T00:15:46;95910.09;;;13.49;100.00
56038;BME280;41907;47.848;9.000;2023-07-31T00:18:12;95911.66;;;13.50;100.00
56038;BME280;41907;47.848;9.000;2023-07-31T00:20:38;95915.13;;;13.51;100.00
56038;BME280;41907;47.848;9.000;2023-07-31T00:23:03;95923.19;;;13.42;100.00
56038;BME280;41907;47.848;9.000;2023-07-31T00:25:29;95927.31;;;13.31;100.00
56038;BME280;41907;47.848;9.000;2023-07-31T00:27:54;95930.69;;;13.19;100.00
56038;BME280;41907;47.848;9.000;2023-07-31T00:30:19;95921.03;;;13.27;100.00
56038;BME280;41907;47.848;9.000;2023-07-31T00:32:45;95925.31;;;13.28;100.00
56038;BME280;41907;47.848;9.000;2023-07-31T00:35:10;95929.41;;;13.25;100.00
56038;BME280;41907;47.848;9.000;2023-07-31T00:37:35;95928.31;;;13.18;100.00
56038;BME280;41907;47.848;9.000;2023-07-31T00:40:01;95924.38;;;13.07;100.00
56038;BME280;41907;47.848;9.000;2023-07-31T00:42:28;95935.25;;;13.01;100.00
56038;BME280;41907;47.848;9.000;2023-07-31T00:44:53;95936.34;;;13.09;100.00
56038;BME280;41907;47.848;9.000;2023-07-31T00:47:19;95935.88;;;13.07;100.00
56038;BME280;41907;47.848;9.000;2023-07-31T00:49:44;95925.16;;;13.07;100.00
56038;BME280;41907;47.848;9.000;2023-07-31T00:52:10;95923.09;;;13.13;100.00
56038;BME280;41907;47.848;9.000;2023-07-31T00:54:36;95913.34;;;13.17;100.00
56038;BME280;41907;47.848;9.000;2023-07-31T00:57:02;95914.44;;;13.16;100.00
56038;BME280;41907;47.848;9.000;2023-07-31T00:59:27;95923.28;;;13.16;100.00
56038;BME280;41907;47.848;9.000;2023-07-31T01:01:53;95919.81;;;13.16;100.00
56038;BME280;41907;47.848;9.000;2023-07-31T01:04:18;95910.19;;;13.15;100.00
56038;BME280;41907;47.848;9.000;2023-07-31T01:07:02;95911.59;;;13.03;100.00
56038;BME280;41907;47.848;9.000;2023-07-31T01:12:16;95916.66;;;12.96;100.00
56038;BME280;41907;47.848;9.000;2023-07-31T01:15:12;95909.91;;;12.90;100.00
56038;BME280;41907;47.848;9.000;2023-07-31T01:17:39;95908.63;;;12.96;100.00
56038;BME280;41907;47.848;9.000;2023-07-31T01:20:12;95906.00;;;12.79;100.00
56038;BME280;41907;47.848;9.000;2023-07-31T01:25:46;95899.22;;;12.73;100.00
56038;BME280;41907;47.848;9.000;2023-07-31T01:31:47;95897.19;;;12.70;100.00
56038;BME280;41907;47.848;9.000;2023-07-31T01:34:16;95895.44;;;12.74;100.00
56038;BME280;41907;47.848;9.000;2023-07-31T01:36:43;95892.13;;;12.77;100.00
56038;BME280;41907;47.848;9.000;2023-07-31T01:39:08;95893.41;;;12.71;100.00
56038;BME280;41907;47.848;9.000;2023-07-31T01:41:33;95887.75;;;12.73;100.00
56038;BME280;41907;47.848;9.000;2023-07-31T01:43:59;95889.78;;;12.67;100.00
56038;BME280;41907;47.848;9.000;2023-07-31T01:46:24;95881.75;;;12.67;100.00
56038;BME280;41907;47.848;9.000;2023-07-31T01:48:49;95882.22;;;12.69;100.00
56038;BME280;41907;47.848;9.000;2023-07-31T01:51:15;95880.63;;;12.77;100.00
56038;BME280;41907;47.848;9.000;2023-07-31T01:53:40;95881.59;;;12.72;100.00
56038;BME280;41907;47.848;9.000;2023-07-31T01:56:05;95875.78;;;12.53;100.00
56038;BME280;41907;47.848;9.000;2023-07-31T01:58:31;95877.19;;;12.50;100.00
56038;BME280;41907;47.848;9.000;2023-07-31T02:00:56;95877.50;;;12.49;100.00
56038;BME280;41907;47.848;9.000;2023-07-31T02:03:22;95879.09;;;12.50;100.00
56038;BME280;41907;47.848;9.000;2023-07-31T02:05:48;95878.28;;;12.58;100.00
56038;BME280;41907;47.848;9.000;2023-07-31T02:08:14;95878.78;;;12.60;100.00
56038;BME280;41907;47.848;9.000;2023-07-31T02:10:39;95872.63;;;12.51;100.00
56038;BME280;41907;47.848;9.000;2023-07-31T02:13:05;95877.03;;;12.47;100.00
56038;BME280;41907;47.848;9.000;2023-07-31T02:15:31;95864.94;;;12.41;100.00
56038;BME280;41907;47.848;9.000;2023-07-31T02:17:57;95869.81;;;12.39;100.00
56038;BME280;41907;47.848;9.000;2023-07-31T02:20:22;95863.03;;;12.50;100.00
56038;BME280;41907;47.848;9.000;2023-07-31T02:22:48;95860.22;;;12.55;100.00
56038;BME280;41907;47.848;9.000;2023-07-31T02:25:13;95861.75;;;12.56;100.00
56038;BME280;41907;47.848;9.000;2023-07-31T02:27:39;95858.16;;;12.60;100.00
56038;BME280;41907;47.848;9.000;2023-07-31T02:30:04;95858.47;;;12.59;100.00
56038;BME280;41907;47.848;9.000;2023-07-31T02:32:30;95852.63;;;12.57;100.00
56038;BME280;41907;47.848;9.000;2023-07-31T02:34:55;95851.22;;;12.59;100.00
56038;BME280;41907;47.848;9.000;2023-07-31T02:37:20;95851.06;;;12.56;100.00
56038;BME280;41907;47.848;9.000;2023-07-31T02:39:46;95848.25;;;12.52;100.00
56038;BME280;41907;47.848;9.000;2023-07-31T02:42:12;95847.94;;;12.45;100.00
56038;BME280;41907;47.848;9.000;2023-07-31T02:44:38;95853.28;;;12.37;100.00
56038;BME280;41907;47.848;9.000;2023-07-31T02:47:03;95842.94;;;12.26;100.00
56038;BME280;41907;47.848;9.000;2023-07-31T02:49:29;95838.03;;;12.11;100.00
56038;BME280;41907;47.848;9.000;2023-07-31T02:51:54;95846.03;;;11.94;100.00
56038;BME280;41907;47.848;9.000;2023-07-31T02:54:19;95849.81;;;11.93;100.00
56038;BME280;41907;47.848;9.000;2023-07-31T02:56:47;95852.34;;;12.07;100.00
56038;BME280;41907;47.848;9.000;2023-07-31T02:59:12;95856.59;;;12.16;100.00
56038;BME280;41907;47.848;9.000;2023-07-31T03:01:37;95858.31;;;12.12;100.00
56038;BME280;41907;47.848;9.000;2023-07-31T03:04:03;95856.44;;;12.21;100.00
56038;BME280;41907;47.848;9.000;2023-07-31T03:06:29;95859.28;;;12.34;100.00
56038;BME280;41907;47.848;9.000;2023-07-31T03:08:54;95855.97;;;12.28;100.00
56038;BME280;41907;47.848;9.000;2023-07-31T03:11:19;95853.28;;;12.19;100.00
56038;BME280;41907;47.848;9.000;2023-07-31T03:13:45;95855.16;;;12.19;100.00
56038;BME280;41907;47.848;9.000;2023-07-31T03:16:10;95849.50;;;12.12;100.00
56038;BME280;41907;47.848;9.000;2023-07-31T03:18:36;95847.94;;;12.19;100.00
56038;BME280;41907;47.848;9.000;2023-07-31T03:21:01;95844.47;;;12.19;100.00
56038;BME280;41907;47.848;9.000;2023-07-31T03:23:26;95846.03;;;12.11;100.00
56038;BME280;41907;47.848;9.000;2023-07-31T03:25:59;95851.38;;;12.03;100.00
56038;BME280;41907;47.848;9.000;2023-07-31T03:28:25;95849.19;;;12.05;100.00
56038;BME280;41907;47.848;9.000;2023-07-31T03:30:51;95855.47;;;11.91;100.00
56038;BME280;41907;47.848;9.000;2023-07-31T03:33:17;95855.44;;;11.83;100.00
56038;BME280;41907;47.848;9.000;2023-07-31T03:35:42;95848.22;;;11.75;100.00
56038;BME280;41907;47.848;9.000;2023-07-31T03:38:07;95857.81;;;11.84;100.00
56038;BME280;41907;47.848;9.000;2023-07-31T03:40:33;95846.41;;;11.62;100.00
56038;BME280;41907;47.848;9.000;2023-07-31T03:42:58;95857.81;;;11.76;100.00
56038;BME280;41907;47.848;9.000;2023-07-31T03:45:24;95857.50;;;11.77;100.00
56038;BME280;41907;47.848;9.000;2023-07-31T03:47:49;95855.13;;;11.76;100.00
56038;BME280;41907;47.848;9.000;2023-07-31T03:50:14;95864.50;;;11.65;100.00
56038;BME280;41907;47.848;9.000;2023-07-31T03:52:41;95862.13;;;11.63;100.00
56038;BME280;41907;47.848;9.000;2023-07-31T03:55:06;95859.63;;;11.67;100.00
56038;BME280;41907;47.848;9.000;2023-07-31T03:57:32;95868.56;;;11.62;100.00
56038;BME280;41907;47.848;9.000;2023-07-31T03:59:57;95866.78;;;11.40;100.00
56038;BME280;41907;47.848;9.000;2023-07-31T04:02:23;95872.19;;;11.57;100.00
56038;BME280;41907;47.848;9.000;2023-07-31T04:04:48;95875.06;;;11.70;100.00
56038;BME280;41907;47.848;9.000;2023-07-31T04:07:14;95877.72;;;11.70;100.00
56038;BME280;41907;47.848;9.000;2023-07-31T04:09:39;95876.16;;;11.69;100.00
56038;BME280;41907;47.848;9.000;2023-07-31T04:12:05;95873.47;;;11.69;100.00
56038;BME280;41907;47.848;9.000;2023-07-31T04:14:30;95879.03;;;11.81;100.00
56038;BME280;41907;47.848;9.000;2023-07-31T04:16:55;95877.00;;;11.78;100.00
56038;BME280;41907;47.848;9.000;2023-07-31T04:19:21;95875.09;;;11.78;100.00
56038;BME280;41907;47.848;9.000;2023-07-31T04:21:46;95884.72;;;11.97;100.00
56038;BME280;41907;47.848;9.000;2023-07-31T04:24:11;95885.66;;;12.01;100.00
56038;BME280;41907;47.848;9.000;2023-07-31T04:26:37;95879.84;;;11.99;100.00
56038;BME280;41907;47.848;9.000;2023-07-31T04:29:02;95876.53;;;12.02;100.00
56038;BME280;41907;47.848;9.000;2023-07-31T04:31:27;95874.34;;;12.04;100.00
56038;BME280;41907;47.848;9.000;2023-07-31T04:33:53;95875.28;;;11.99;100.00
56038;BME280;41907;47.848;9.000;2023-07-31T04:36:18;95869.00;;;12.12;100.00
56038;BME280;41907;47.848;9.000;2023-07-31T04:38:43;95868.72;;;12.22;100.00
56038;BME280;41907;47.848;9.000;2023-07-31T04:41:09;95875.00;;;12.52;100.00
56038;BME280;41907;47.848;9.000;2023-07-31T04:43:34;95869.13;;;12.76;100.00
56038;BME280;41907;47.848;9.000;2023-07-31T04:45:59;95871.78;;;12.93;100.00
56038;BME280;41907;47.848;9.000;2023-07-31T04:48:25;95859.56;;;13.39;100.00
56038;BME280;41907;47.848;9.000;2023-07-31T04:50:50;95853.56;;;14.42;100.00
56038;BME280;41907;47.848;9.000;2023-07-31T04:53:16;95865.19;;;15.00;100.00
56038;BME280;41907;47.848;9.000;2023-07-31T04:55:41;95854.75;;;15.80;97.15
56038;BME280;41907;47.848;9.000;2023-07-31T04:58:06;95857.44;;;15.80;94.77
56038;BME280;41907;47.848;9.000;2023-07-31T05:00:31;95866.81;;;15.25;98.15
56038;BME280;41907;47.848;9.000;2023-07-31T05:02:57;95861.78;;;15.48;98.54
56038;BME280;41907;47.848;9.000;2023-07-31T05:05:22;95860.44;;;16.55;92.70
56038;BME280;41907;47.848;9.000;2023-07-31T05:07:48;95871.50;;;16.38;92.98
56038;BME280;41907;47.848;9.000;2023-07-31T05:10:13;95870.56;;;16.46;93.08
56038;BME280;41907;47.848;9.000;2023-07-31T05:12:39;95869.09;;;16.89;91.55
56038;BME280;41907;47.848;9.000;2023-07-31T05:15:04;95870.06;;;17.71;87.76
56038;BME280;41907;47.848;9.000;2023-07-31T05:17:30;95868.25;;;18.45;83.78
56038;BME280;41907;47.848;9.000;2023-07-31T05:19:55;95873.91;;;18.75;81.58
56038;BME280;41907;47.848;9.000;2023-07-31T05:22:20;95868.41;;;18.17;84.27
56038;BME280;41907;47.848;9.000;2023-07-31T05:24:46;95868.88;;;18.04;84.51
56038;BME280;41907;47.848;9.000;2023-07-31T05:27:11;95865.06;;;17.58;86.69
56038;BME280;41907;47.848;9.000;2023-07-31T05:29:37;95862.31;;;17.54;87.31
56038;BME280;41907;47.848;9.000;2023-07-31T05:32:03;95870.13;;;17.00;89.52
56038;BME280;41907;47.848;9.000;2023-07-31T05:34:29;95858.25;;;16.33;93.09
56038;BME280;41907;47.848;9.000;2023-07-31T05:36:54;95853.06;;;16.00;95.24
56038;BME280;41907;47.848;9.000;2023-07-31T05:39:19;95861.50;;;15.74;97.53
56038;BME280;41907;47.848;9.000;2023-07-31T05:41:45;95869.34;;;15.55;100.00
56038;BME280;41907;47.848;9.000;2023-07-31T05:44:10;95865.72;;;15.51;100.00
56038;BME280;41907;47.848;9.000;2023-07-31T05:46:36;95862.47;;;15.45;100.00
56038;BME280;41907;47.848;9.000;2023-07-31T05:49:01;95866.94;;;15.41;100.00
56038;BME280;41907;47.848;9.000;2023-07-31T05:51:27;95878.94;;;15.44;100.00
56038;BME280;41907;47.848;9.000;2023-07-31T05:53:53;95882.97;;;15.38;100.00
56038;BME280;41907;47.848;9.000;2023-07-31T05:56:18;95874.66;;;15.31;100.00
56038;BME280;41907;47.848;9.000;2023-07-31T05:58:43;95878.91;;;15.32;100.00
56038;BME280;41907;47.848;9.000;2023-07-31T06:01:09;95876.13;;;15.40;100.00
56038;BME280;41907;47.848;9.000;2023-07-31T06:03:34;95877.97;;;15.60;100.00
56038;BME280;41907;47.848;9.000;2023-07-31T06:05:59;95874.72;;;15.79;100.00
56038;BME280;41907;47.848;9.000;2023-07-31T06:08:25;95864.63;;;15.76;100.00
56038;BME280;41907;47.848;9.000;2023-07-31T06:10:50;95871.69;;;15.81;100.00
56038;BME280;41907;47.848;9.000;2023-07-31T06:13:16;95871.13;;;15.87;100.00
56038;BME280;41907;47.848;9.000;2023-07-31T06:15:41;95882.66;;;16.00;100.00
56038;BME280;41907;47.848;9.000;2023-07-31T06:18:06;95873.53;;;16.17;100.00
56038;BME280;41907;47.848;9.000;2023-07-31T06:20:34;95869.53;;;16.11;100.00
56038;BME280;41907;47.848;9.000;2023-07-31T06:22:59;95876.31;;;16.32;100.00
56038;BME280;41907;47.848;9.000;2023-07-31T06:25:25;95873.19;;;16.30;100.00
56038;BME280;41907;47.848;9.000;2023-07-31T06:27:50;95871.38;;;16.34;100.00
56038;BME280;41907;47.848;9.000;2023-07-31T06:30:15;95875.31;;;16.37;100.00
56038;BME280;41907;47.848;9.000;2023-07-31T06:32:41;95873.94;;;16.43;100.00
56038;BME280;41907;47.848;9.000;2023-07-31T06:35:06;95869.09;;;16.49;99.94
56038;BME280;41907;47.848;9.000;2023-07-31T06:37:32;95875.34;;;16.65;98.88
56038;BME280;41907;47.848;9.000;2023-07-31T06:39:57;95866.97;;;16.82;97.89
56038;BME280;41907;47.848;9.000;2023-07-31T06:42:23;95867.03;;;16.98;95.73
56038;BME280;41907;47.848;9.000;2023-07-31T06:44:49;95866.66;;;16.99;96.54
56038;BME280;41907;47.848;9.000;2023-07-31T06:47:14;95855.47;;;16.97;94.84
56038;BME280;41907;47.848;9.000;2023-07-31T06:49:40;95861.09;;;16.92;97.65
56038;BME280;41907;47.848;9.000;2023-07-31T06:52:05;95862.69;;;17.09;96.31
56038;BME280;41907;47.848;9.000;2023-07-31T06:54:31;95864.81;;;17.31;95.85
56038;BME280;41907;47.848;9.000;2023-07-31T06:56:57;95870.19;;;17.47;95.10
56038;BME280;41907;47.848;9.000;2023-07-31T06:59:22;95869.44;;;17.78;94.16
56038;BME280;41907;47.848;9.000;2023-07-31T07:01:47;95873.31;;;18.31;90.36
56038;BME280;41907;47.848;9.000;2023-07-31T07:04:13;95860.41;;;19.40;85.07
56038;BME280;41907;47.848;9.000;2023-07-31T07:06:39;95842.84;;;20.55;75.28
56038;BME280;41907;47.848;9.000;2023-07-31T07:09:04;95838.25;;;20.33;74.80
56038;BME280;41907;47.848;9.000;2023-07-31T07:11:30;95844.88;;;19.56;79.04
56038;BME280;41907;47.848;9.000;2023-07-31T07:13:55;95836.69;;;19.30;80.59
56038;BME280;41907;47.848;9.000;2023-07-31T07:16:20;95835.00;;;18.80;83.53
56038;BME280;41907;47.848;9.000;2023-07-31T07:18:46;95836.56;;;18.62;83.14
56038;BME280;41907;47.848;9.000;2023-07-31T07:21:11;95850.47;;;18.44;85.41
56038;BME280;41907;47.848;9.000;2023-07-31T07:23:41;95854.75;;;18.45;86.67
56038;BME280;41907;47.848;9.000;2023-07-31T07:26:06;95854.97;;;18.56;85.86
56038;BME280;41907;47.848;9.000;2023-07-31T07:28:31;95852.06;;;18.84;84.31
56038;BME280;41907;47.848;9.000;2023-07-31T07:30:56;95846.09;;;18.75;83.55
56038;BME280;41907;47.848;9.000;2023-07-31T07:33:23;95848.66;;;18.68;83.01
56038;BME280;41907;47.848;9.000;2023-07-31T07:35:49;95855.13;;;18.63;81.14
56038;BME280;41907;47.848;9.000;2023-07-31T07:38:15;95849.91;;;18.35;82.78
56038;BME280;41907;47.848;9.000;2023-07-31T07:40:41;95839.25;;;17.72;83.64
56038;BME280;41907;47.848;9.000;2023-07-31T07:43:06;95844.78;;;17.95;87.11
56038;BME280;41907;47.848;9.000;2023-07-31T07:45:32;95847.84;;;18.29;86.42
56038;BME280;41907;47.848;9.000;2023-07-31T07:47:57;95848.97;;;18.28;85.34
56038;BME280;41907;47.848;9.000;2023-07-31T07:50:24;95842.44;;;18.29;86.09
56038;BME280;41907;47.848;9.000;2023-07-31T07:52:50;95841.97;;;18.62;84.38
56038;BME280;41907;47.848;9.000;2023-07-31T07:55:15;95848.44;;;19.18;82.66
56038;BME280;41907;47.848;9.000;2023-07-31T07:57:40;95846.44;;;19.57;80.09
56038;BME280;41907;47.848;9.000;2023-07-31T08:00:06;95835.31;;;19.62;80.16
56038;BME280;41907;47.848;9.000;2023-07-31T08:02:32;95845.75;;;19.64;79.21
56038;BME280;41907;47.848;9.000;2023-07-31T08:04:57;95846.94;;;20.16;76.16
56038;BME280;41907;47.848;9.000;2023-07-31T08:07:23;95847.28;;;20.70;72.88
56038;BME280;41907;47.848;9.000;2023-07-31T08:09:48;95852.66;;;21.00;68.57
56038;BME280;41907;47.848;9.000;2023-07-31T08:12:13;95852.28;;;21.39;68.04
56038;BME280;41907;47.848;9.000;2023-07-31T08:14:39;95848.47;;;22.56;65.77
56038;BME280;41907;47.848;9.000;2023-07-31T08:17:04;95848.72;;;23.24;60.40
56038;BME280;41907;47.848;9.000;2023-07-31T08:19:30;95831.66;;;23.55;58.59
56038;BME280;41907;47.848;9.000;2023-07-31T08:21:55;95840.22;;;23.96;57.38
56038;BME280;41907;47.848;9.000;2023-07-31T08:24:20;95842.56;;;23.73;55.83
56038;BME280;41907;47.848;9.000;2023-07-31T08:26:46;95829.69;;;24.23;54.32
56038;BME280;41907;47.848;9.000;2023-07-31T08:29:12;95837.13;;;23.59;56.37
56038;BME280;41907;47.848;9.000;2023-07-31T08:31:37;95828.09;;;24.43;55.62
56038;BME280;41907;47.848;9.000;2023-07-31T08:34:03;95826.19;;;24.08;53.45
56038;BME280;41907;47.848;9.000;2023-07-31T08:36:28;95814.53;;;23.90;53.64
56038;BME280;41907;47.848;9.000;2023-07-31T08:38:53;95817.91;;;24.55;53.51
56038;BME280;41907;47.848;9.000;2023-07-31T08:41:19;95805.03;;;24.62;52.88
56038;BME280;41907;47.848;9.000;2023-07-31T08:43:49;95809.19;;;24.95;50.63
56038;BME280;41907;47.848;9.000;2023-07-31T08:46:15;95803.16;;;24.38;49.33
56038;BME280;41907;47.848;9.000;2023-07-31T08:48:42;95801.84;;;24.78;51.19
56038;BME280;41907;47.848;9.000;2023-07-31T08:51:08;95799.03;;;24.96;50.59
56038;BME280;41907;47.848;9.000;2023-07-31T08:53:34;95786.38;;;25.27;51.26
56038;BME280;41907;47.848;9.000;2023-07-31T08:55:59;95787.50;;;25.29;49.88
56038;BME280;41907;47.848;9.000;2023-07-31T08:58:25;95796.75;;;25.46;49.95
56038;BME280;41907;47.848;9.000;2023-07-31T09:00:54;95798.63;;;25.60;49.34
56038;BME280;41907;47.848;9.000;2023-07-31T09:03:23;95799.75;;;25.58;48.06
56038;BME280;41907;47.848;9.000;2023-07-31T09:05:49;95799.13;;;25.40;49.13
56038;BME280;41907;47.848;9.000;2023-07-31T09:08:19;95799.56;;;25.35;49.13
56038;BME280;41907;47.848;9.000;2023-07-31T09:10:46;95797.09;;;24.89;51.06
56038;BME280;41907;47.848;9.000;2023-07-31T09:13:12;95788.13;;;24.99;50.46
56038;BME280;41907;47.848;9.000;2023-07-31T09:15:38;95801.78;;;25.51;49.21
56038;BME280;41907;47.848;9.000;2023-07-31T09:18:05;95795.63;;;25.91;48.85
56038;BME280;41907;47.848;9.000;2023-07-31T09:20:31;95798.28;;;25.99;48.00
56038;BME280;41907;47.848;9.000;2023-07-31T09:23:05;95795.34;;;26.16;47.13
56038;BME280;41907;47.848;9.000;2023-07-31T09:25:32;95781.03;;;26.05;46.96
56038;BME280;41907;47.848;9.000;2023-07-31T09:28:00;95784.53;;;25.09;46.35
56038;BME280;41907;47.848;9.000;2023-07-31T09:30:26;95791.97;;;23.36;51.01
56038;BME280;41907;47.848;9.000;2023-07-31T09:33:00;95796.19;;;24.12;51.21
56038;BME280;41907;47.848;9.000;2023-07-31T09:35:30;95792.44;;;24.82;50.27
56038;BME280;41907;47.848;9.000;2023-07-31T09:38:02;95786.47;;;25.12;48.74
56038;BME280;41907;47.848;9.000;2023-07-31T09:42:59;95779.47;;;25.67;46.63
56038;BME280;41907;47.848;9.000;2023-07-31T09:45:25;95782.06;;;25.81;46.33
56038;BME280;41907;47.848;9.000;2023-07-31T09:47:51;95782.84;;;26.19;46.96
56038;BME280;41907;47.848;9.000;2023-07-31T09:50:17;95769.09;;;26.26;44.94
56038;BME280;41907;47.848;9.000;2023-07-31T09:52:43;95774.22;;;26.88;45.13
56038;BME280;41907;47.848;9.000;2023-07-31T09:55:09;95769.84;;;26.91;43.38
56038;BME280;41907;47.848;9.000;2023-07-31T09:57:47;95766.47;;;27.10;43.92
56038;BME280;41907;47.848;9.000;2023-07-31T10:00:16;95757.28;;;26.36;44.89
56038;BME280;41907;47.848;9.000;2023-07-31T10:02:45;95750.06;;;25.78;43.28
56038;BME280;41907;47.848;9.000;2023-07-31T10:05:13;95751.13;;;25.91;45.44
56038;BME280;41907;47.848;9.000;2023-07-31T10:07:53;95750.91;;;26.12;45.24
56038;BME280;41907;47.848;9.000;2023-07-31T10:10:20;95757.97;;;26.06;44.87
56038;BME280;41907;47.848;9.000;2023-07-31T10:12:48;95737.72;;;25.66;47.29
56038;BME280;41907;47.848;9.000;2023-07-31T10:15:15;95741.78;;;25.44;45.16
56038;BME280;41907;47.848;9.000;2023-07-31T10:17:41;95738.25;;;25.43;45.60
56038;BME280;41907;47.848;9.000;2023-07-31T10:20:07;95729.47;;;25.70;44.87
56038;BME280;41907;47.848;9.000;2023-07-31T10:22:32;95730.63;;;26.06;44.08
56038;BME280;41907;47.848;9.000;2023-07-31T10:24:59;95719.00;;;26.36;43.42
56038;BME280;41907;47.848;9.000;2023-07-31T10:27:25;95709.72;;;25.92;43.21
56038;BME280;41907;47.848;9.000;2023-07-31T10:29:52;95702.59;;;26.36;42.57
56038;BME280;41907;47.848;9.000;2023-07-31T10:32:19;95706.91;;;26.34;41.82
56038;BME280;41907;47.848;9.000;2023-07-31T10:34:45;95706.38;;;26.46;41.76
56038;BME280;41907;47.848;9.000;2023-07-31T10:37:36;95691.72;;;26.33;42.09
56038;BME280;41907;47.848;9.000;2023-07-31T10:40:06;95692.97;;;26.82;44.24
56038;BME280;41907;47.848;9.000;2023-07-31T10:42:45;95686.75;;;27.08;42.02
56038;BME280;41907;47.848;9.000;2023-07-31T10:45:12;95688.81;;;27.00;41.40
56038;BME280;41907;47.848;9.000;2023-07-31T10:47:47;95676.25;;;26.15;42.05
56038;BME280;41907;47.848;9.000;2023-07-31T10:50:16;95664.03;;;25.14;44.77
56038;BME280;41907;47.848;9.000;2023-07-31T10:52:47;95658.09;;;25.23;45.76
56038;BME280;41907;47.848;9.000;2023-07-31T10:55:39;95659.66;;;25.20;45.61
56038;BME280;41907;47.848;9.000;2023-07-31T10:58:07;95649.03;;;25.33;45.44
56038;BME280;41907;47.848;9.000;2023-07-31T11:00:33;95653.63;;;25.43;44.03
56038;BME280;41907;47.848;9.000;2023-07-31T11:03:08;95648.91;;;25.47;46.68
56038;BME280;41907;47.848;9.000;2023-07-31T11:08:28;95646.63;;;24.94;45.37
56038;BME280;41907;47.848;9.000;2023-07-31T11:13:30;95647.81;;;24.93;46.13
56038;BME280;41907;47.848;9.000;2023-07-31T11:15:55;95646.56;;;25.01;45.15
56038;BME280;41907;47.848;9.000;2023-07-31T11:18:21;95650.09;;;25.43;45.02
56038;BME280;41907;47.848;9.000;2023-07-31T11:20:46;95652.06;;;25.42;45.60
56038;BME280;41907;47.848;9.000;2023-07-31T11:23:12;95644.25;;;25.44;43.90
56038;BME280;41907;47.848;9.000;2023-07-31T11:25:39;95641.31;;;25.25;44.63
56038;BME280;41907;47.848;9.000;2023-07-31T11:28:12;95646.09;;;25.13;46.42
56038;BME280;41907;47.848;9.000;2023-07-31T11:30:39;95651.75;;;25.33;45.60
56038;BME280;41907;47.848;9.000;2023-07-31T11:33:06;95647.94;;;25.27;42.31
56038;BME280;41907;47.848;9.000;2023-07-31T11:35:34;95643.19;;;25.31;43.92
56038;BME280;41907;47.848;9.000;2023-07-31T11:38:00;95640.44;;;24.83;42.64
56038;BME280;41907;47.848;9.000;2023-07-31T11:40:25;95639.16;;;25.05;44.65
56038;BME280;41907;47.848;9.000;2023-07-31T11:42:55;95642.00;;;25.36;44.42
56038;BME280;41907;47.848;9.000;2023-07-31T11:45:24;95640.38;;;25.79;45.03
56038;BME280;41907;47.848;9.000;2023-07-31T11:47:50;95633.13;;;26.00;44.31
56038;BME280;41907;47.848;9.000;2023-07-31T11:50:16;95641.06;;;25.49;42.33
56038;BME280;41907;47.848;9.000;2023-07-31T11:52:44;95630.34;;;25.69;44.33
56038;BME280;41907;47.848;9.000;2023-07-31T11:55:10;95634.09;;;25.04;43.95
56038;BME280;41907;47.848;9.000;2023-07-31T11:57:38;95637.81;;;25.20;45.17
56038;BME280;41907;47.848;9.000;2023-07-31T12:00:06;95633.47;;;25.68;44.50
56038;BME280;41907;47.848;9.000;2023-07-31T12:02:32;95623.56;;;25.84;44.74
56038;BME280;41907;47.848;9.000;2023-07-31T12:04:57;95620.16;;;25.73;43.69
56038;BME280;41907;47.848;9.000;2023-07-31T12:07:23;95614.22;;;25.82;45.85
56038;BME280;41907;47.848;9.000;2023-07-31T12:09:55;95610.88;;;26.32;44.90
56038;BME280;41907;47.848;9.000;2023-07-31T12:12:25;95612.19;;;26.16;41.93
56038;BME280;41907;47.848;9.000;2023-07-31T12:14:50;95606.63;;;26.27;41.57
56038;BME280;41907;47.848;9.000;2023-07-31T12:17:18;95605.34;;;25.33;42.96
56038;BME280;41907;47.848;9.000;2023-07-31T12:19:45;95593.25;;;24.93;44.84
56038;BME280;41907;47.848;9.000;2023-07-31T12:22:14;95587.97;;;24.72;45.32
56038;BME280;41907;47.848;9.000;2023-07-31T12:24:44;95587.97;;;25.54;46.02
56038;BME280;41907;47.848;9.000;2023-07-31T12:27:15;95584.47;;;25.53;45.23
56038;BME280;41907;47.848;9.000;2023-07-31T12:29:42;95584.75;;;25.25;44.49
56038;BME280;41907;47.848;9.000;2023-07-31T12:32:21;95589.41;;;24.32;46.28
56038;BME280;41907;47.848;9.000;2023-07-31T12:34:47;95576.66;;;24.15;47.87
56038;BME280;41907;47.848;9.000;2023-07-31T12:37:13;95578.47;;;24.35;49.22
56038;BME280;41907;47.848;9.000;2023-07-31T12:39:38;95573.59;;;24.64;47.90
56038;BME280;41907;47.848;9.000;2023-07-31T12:42:04;95573.25;;;24.55;49.20
56038;BME280;41907;47.848;9.000;2023-07-31T12:44:29;95575.84;;;24.73;48.12
56038;BME280;41907;47.848;9.000;2023-07-31T12:46:54;95568.16;;;25.09;48.14
56038;BME280;41907;47.848;9.000;2023-07-31T12:49:20;95565.63;;;25.29;47.46
56038;BME280;41907;47.848;9.000;2023-07-31T12:51:45;95566.56;;;25.49;45.13
56038;BME280;41907;47.848;9.000;2023-07-31T12:54:10;95554.13;;;25.44;44.52
56038;BME280;41907;47.848;9.000;2023-07-31T12:56:36;95549.94;;;25.36;45.56
56038;BME280;41907;47.848;9.000;2023-07-31T12:59:01;95548.38;;;25.35;46.22
56038;BME280;41907;47.848;9.000;2023-07-31T13:01:26;95540.69;;;25.27;45.63
56038;BME280;41907;47.848;9.000;2023-07-31T13:03:52;95545.59;;;25.39;46.45
56038;BME280;41907;47.848;9.000;2023-07-31T13:06:17;95538.53;;;25.45;46.18
56038;BME280;41907;47.848;9.000;2023-07-31T13:08:42;95535.31;;;25.53;47.80